createdAt,value
2018-08-30T00:00:26.478Z,24.07
2018-08-30T00:01:29.926Z,24.07
2018-08-30T00:02:33.455Z,24.08
2018-08-30T00:03:36.868Z,24.08
2018-08-30T00:04:40.274Z,24.08
2018-08-30T00:05:44.341Z,24.09
2018-08-30T00:06:47.744Z,24.10
2018-08-30T00:07:51.120Z,24.09
2018-08-30T00:08:54.610Z,24.09
2018-08-30T00:09:58.056Z,24.09
2018-08-30T00:11:01.495Z,24.11
2018-08-30T00:12:05.221Z,24.11
2018-08-30T00:13:08.855Z,24.11
2018-08-30T00:14:12.267Z,24.11
2018-08-30T00:15:15.724Z,24.13
2018-08-30T00:16:19.584Z,24.13
2018-08-30T00:17:22.983Z,24.13
2018-08-30T00:18:26.405Z,24.13
2018-08-30T00:19:29.837Z,24.15
2018-08-30T00:20:33.232Z,24.14
2018-08-30T00:21:36.644Z,24.14
2018-08-30T00:22:40.085Z,24.14
2018-08-30T00:23:43.495Z,24.15
2018-08-30T00:24:46.912Z,24.15
2018-08-30T00:25:50.308Z,24.14
2018-08-30T00:26:53.718Z,24.15
2018-08-30T00:27:57.124Z,24.16
2018-08-30T00:29:00.533Z,24.15
2018-08-30T00:30:04.091Z,24.16
2018-08-30T00:31:07.539Z,24.15
2018-08-30T00:32:10.991Z,24.15
2018-08-30T00:33:14.364Z,24.15
2018-08-30T00:34:18.063Z,24.15
2018-08-30T00:35:21.505Z,24.14
2018-08-30T00:36:24.954Z,24.15
2018-08-30T00:37:28.357Z,24.15
2018-08-30T00:38:31.737Z,24.16
2018-08-30T00:39:35.142Z,24.17
2018-08-30T00:40:38.536Z,24.17
2018-08-30T00:41:41.984Z,24.17
2018-08-30T00:42:45.440Z,24.17
2018-08-30T00:43:48.835Z,24.18
2018-08-30T00:44:52.244Z,24.17
2018-08-30T00:45:55.699Z,24.17
2018-08-30T00:46:59.110Z,24.18
2018-08-30T00:48:02.504Z,24.19
2018-08-30T00:49:05.907Z,24.18
2018-08-30T00:50:09.290Z,24.18
2018-08-30T00:51:12.701Z,24.18
2018-08-30T00:52:16.329Z,24.19
2018-08-30T00:53:19.755Z,24.18
2018-08-30T00:54:23.162Z,24.19
2018-08-30T00:55:26.567Z,24.19
2018-08-30T00:56:30.159Z,24.19
2018-08-30T00:57:33.611Z,24.19
2018-08-30T00:58:37.035Z,24.19
2018-08-30T00:59:40.611Z,24.19
2018-08-30T01:00:44.020Z,24.20
2018-08-30T01:01:47.398Z,24.20
2018-08-30T01:02:50.987Z,24.19
2018-08-30T01:03:54.381Z,24.20
2018-08-30T01:04:57.816Z,24.20
2018-08-30T01:06:01.473Z,24.20
2018-08-30T01:07:04.898Z,24.21
2018-08-30T01:08:08.310Z,24.20
2018-08-30T01:09:11.757Z,24.21
2018-08-30T01:10:15.158Z,24.21
2018-08-30T01:11:18.566Z,24.21
2018-08-30T01:12:21.987Z,24.21
2018-08-30T01:13:25.416Z,24.21
2018-08-30T01:14:28.825Z,24.21
2018-08-30T01:15:32.242Z,24.21
2018-08-30T01:16:35.617Z,24.21
2018-08-30T01:17:39.074Z,24.23
2018-08-30T01:18:42.514Z,24.22
2018-08-30T01:19:45.940Z,24.23
2018-08-30T01:20:49.321Z,24.23
2018-08-30T01:21:52.724Z,24.22
2018-08-30T01:22:56.147Z,24.22
2018-08-30T01:23:59.568Z,24.23
2018-08-30T01:25:03.011Z,24.22
2018-08-30T01:26:06.536Z,24.21
2018-08-30T01:27:09.928Z,24.22
2018-08-30T01:28:13.340Z,24.22
2018-08-30T01:29:16.779Z,24.21
2018-08-30T01:30:20.186Z,24.21
2018-08-30T01:31:23.618Z,24.22
2018-08-30T01:32:27.117Z,24.21
2018-08-30T01:33:30.540Z,24.21
2018-08-30T01:34:33.974Z,24.22
2018-08-30T01:35:37.384Z,24.23
2018-08-30T01:36:41.844Z,24.23
2018-08-30T01:37:45.268Z,24.24
2018-08-30T01:38:48.688Z,24.23
2018-08-30T01:39:52.109Z,24.23
2018-08-30T01:40:55.488Z,24.23
2018-08-30T01:41:58.896Z,24.23
2018-08-30T01:43:02.386Z,24.22
2018-08-30T01:44:05.833Z,24.23
2018-08-30T01:45:09.266Z,24.23
2018-08-30T01:46:12.717Z,24.22
2018-08-30T01:47:16.129Z,24.23
2018-08-30T01:48:19.523Z,24.24
2018-08-30T01:49:22.966Z,24.22
2018-08-30T01:50:26.382Z,24.22
2018-08-30T01:51:29.813Z,24.23
2018-08-30T01:52:33.210Z,24.22
2018-08-30T01:53:36.628Z,24.22
2018-08-30T01:54:40.012Z,24.22
2018-08-30T01:55:43.463Z,24.22
2018-08-30T01:56:46.848Z,24.23
2018-08-30T01:57:50.209Z,24.22
2018-08-30T01:58:53.681Z,24.22
2018-08-30T01:59:57.092Z,24.23
2018-08-30T02:01:00.496Z,24.22
2018-08-30T02:02:04.082Z,24.22
2018-08-30T02:03:07.500Z,24.22
2018-08-30T02:04:10.918Z,24.21
2018-08-30T02:05:14.347Z,24.19
2018-08-30T02:06:17.981Z,24.20
2018-08-30T02:07:21.424Z,24.20
2018-08-30T02:08:24.813Z,24.18
2018-08-30T02:09:28.392Z,24.19
2018-08-30T02:10:31.773Z,24.19
2018-08-30T02:11:35.162Z,24.19
2018-08-30T02:12:38.582Z,24.19
2018-08-30T02:13:41.980Z,24.18
2018-08-30T02:14:45.445Z,24.18
2018-08-30T02:15:48.828Z,24.19
2018-08-30T02:16:52.221Z,24.17
2018-08-30T02:17:55.708Z,24.18
2018-08-30T02:18:59.134Z,24.18
2018-08-30T02:20:02.560Z,24.19
2018-08-30T02:21:05.984Z,24.19
2018-08-30T02:22:09.362Z,24.19
2018-08-30T02:23:12.778Z,24.19
2018-08-30T02:24:16.188Z,24.18
2018-08-30T02:25:19.574Z,24.18
2018-08-30T02:26:22.970Z,24.18
2018-08-30T02:27:26.433Z,24.17
2018-08-30T02:28:29.834Z,24.17
2018-08-30T02:29:33.233Z,24.18
2018-08-30T02:30:36.858Z,24.17
2018-08-30T02:31:40.286Z,24.18
2018-08-30T02:32:43.654Z,24.18
2018-08-30T02:33:47.037Z,24.18
2018-08-30T02:34:50.453Z,24.18
2018-08-30T02:35:53.886Z,24.18
2018-08-30T02:36:57.362Z,24.19
2018-08-30T02:38:00.816Z,24.17
2018-08-30T02:39:04.816Z,24.18
2018-08-30T02:40:08.275Z,24.18
2018-08-30T02:41:11.687Z,24.19
2018-08-30T02:42:15.086Z,24.18
2018-08-30T02:43:18.480Z,24.18
2018-08-30T02:44:21.874Z,24.18
2018-08-30T02:45:25.294Z,24.19
2018-08-30T02:46:28.695Z,24.19
2018-08-30T02:47:32.111Z,24.19
2018-08-30T02:48:35.509Z,24.20
2018-08-30T02:49:38.967Z,24.20
2018-08-30T02:50:42.395Z,24.20
2018-08-30T02:51:45.779Z,24.21
2018-08-30T02:52:49.149Z,24.21
2018-08-30T02:53:52.608Z,24.20
2018-08-30T02:54:56.013Z,24.21
2018-08-30T02:55:59.453Z,24.21
2018-08-30T02:57:02.885Z,24.21
2018-08-30T02:58:06.329Z,24.20
2018-08-30T02:59:09.773Z,24.20
2018-08-30T03:00:13.260Z,24.20
2018-08-30T03:01:16.630Z,24.20
2018-08-30T03:02:20.047Z,24.21
2018-08-30T03:03:23.468Z,24.20
2018-08-30T03:04:26.883Z,24.20
2018-08-30T03:05:30.326Z,24.20
2018-08-30T03:06:33.743Z,24.19
2018-08-30T03:07:37.176Z,24.19
2018-08-30T03:08:40.615Z,24.19
2018-08-30T03:09:43.996Z,24.18
2018-08-30T03:10:47.418Z,24.18
2018-08-30T03:11:50.843Z,24.17
2018-08-30T03:12:54.305Z,24.17
2018-08-30T03:13:57.709Z,24.16
2018-08-30T03:15:09.728Z,24.16
2018-08-30T03:16:13.146Z,24.16
2018-08-30T03:17:16.623Z,24.15
2018-08-30T03:18:20.082Z,24.14
2018-08-30T03:19:23.514Z,24.13
2018-08-30T03:20:26.953Z,24.12
2018-08-30T03:21:30.381Z,24.12
2018-08-30T03:22:34.022Z,24.11
2018-08-30T03:23:37.443Z,24.11
2018-08-30T03:24:40.904Z,24.12
2018-08-30T03:25:44.261Z,24.09
2018-08-30T03:26:47.671Z,24.08
2018-08-30T03:27:51.066Z,24.08
2018-08-30T03:28:54.499Z,24.08
2018-08-30T03:29:58.034Z,24.08
2018-08-30T03:31:01.506Z,24.07
2018-08-30T03:32:04.911Z,24.07
2018-08-30T03:33:08.376Z,24.05
2018-08-30T03:34:11.982Z,24.04
2018-08-30T03:35:15.401Z,24.04
2018-08-30T03:36:18.819Z,24.04
2018-08-30T03:37:22.316Z,24.03
2018-08-30T03:38:25.732Z,24.03
2018-08-30T03:39:29.117Z,24.03
2018-08-30T03:40:32.490Z,24.01
2018-08-30T03:41:35.951Z,24.01
2018-08-30T03:42:39.359Z,24.02
2018-08-30T03:43:42.757Z,24.01
2018-08-30T03:44:46.186Z,24.01
2018-08-30T03:45:49.644Z,23.99
2018-08-30T03:46:53.121Z,23.98
2018-08-30T03:47:56.483Z,23.99
2018-08-30T03:48:59.931Z,23.98
2018-08-30T03:50:03.385Z,23.98
2018-08-30T03:51:06.792Z,23.97
2018-08-30T03:52:10.767Z,23.98
2018-08-30T03:53:14.181Z,23.97
2018-08-30T03:54:17.599Z,23.97
2018-08-30T03:55:21.148Z,23.97
2018-08-30T03:56:24.506Z,23.98
2018-08-30T03:57:27.970Z,23.99
2018-08-30T03:58:31.403Z,23.99
2018-08-30T03:59:34.830Z,24.03
2018-08-30T04:00:38.268Z,24.05
2018-08-30T04:01:41.664Z,24.06
2018-08-30T04:02:45.069Z,24.07
2018-08-30T04:03:48.459Z,24.09
2018-08-30T04:04:51.879Z,24.08
2018-08-30T04:05:55.345Z,24.10
2018-08-30T04:06:58.898Z,24.09
2018-08-30T04:08:02.308Z,24.10
2018-08-30T04:09:08.312Z,24.12
2018-08-30T04:10:11.736Z,24.11
2018-08-30T04:11:15.142Z,24.11
2018-08-30T04:12:18.546Z,24.12
2018-08-30T04:13:21.980Z,24.12
2018-08-30T04:14:25.433Z,24.11
2018-08-30T04:15:28.851Z,24.12
2018-08-30T04:16:32.288Z,24.09
2018-08-30T04:17:35.677Z,24.09
2018-08-30T04:18:39.129Z,24.09
2018-08-30T04:19:42.599Z,24.08
2018-08-30T04:20:46.169Z,24.08
2018-08-30T04:21:49.614Z,24.08
2018-08-30T04:22:53.074Z,24.08
2018-08-30T04:23:56.520Z,24.06
2018-08-30T04:24:59.901Z,24.07
2018-08-30T04:26:03.340Z,24.06
2018-08-30T04:27:06.780Z,24.05
2018-08-30T04:28:10.208Z,24.05
2018-08-30T04:29:13.597Z,24.04
2018-08-30T04:30:17.098Z,24.04
2018-08-30T04:31:20.653Z,24.05
2018-08-30T04:32:24.030Z,24.04
2018-08-30T04:33:27.499Z,24.04
2018-08-30T04:34:30.914Z,24.03
2018-08-30T04:35:34.298Z,24.02
2018-08-30T04:36:37.716Z,24.02
2018-08-30T04:37:41.118Z,23.99
2018-08-30T04:38:44.527Z,23.99
2018-08-30T04:39:47.944Z,24.00
2018-08-30T04:40:51.354Z,24.00
2018-08-30T04:41:54.799Z,23.98
2018-08-30T04:42:58.210Z,23.97
2018-08-30T04:44:01.790Z,23.99
2018-08-30T04:45:05.626Z,23.97
2018-08-30T04:46:09.034Z,23.96
2018-08-30T04:47:12.473Z,23.96
2018-08-30T04:48:15.975Z,23.96
2018-08-30T04:49:19.379Z,23.97
2018-08-30T04:50:22.776Z,23.96
2018-08-30T04:51:26.158Z,23.96
2018-08-30T04:52:29.569Z,23.96
2018-08-30T04:53:32.956Z,23.96
2018-08-30T04:54:36.356Z,23.97
2018-08-30T04:55:39.739Z,23.97
2018-08-30T04:56:43.220Z,23.95
2018-08-30T04:57:46.943Z,23.97
2018-08-30T04:58:50.322Z,23.96
2018-08-30T04:59:53.781Z,23.96
2018-08-30T05:00:57.279Z,23.96
2018-08-30T05:02:00.698Z,23.96
2018-08-30T05:03:04.131Z,23.97
2018-08-30T05:04:07.612Z,23.97
2018-08-30T05:05:10.996Z,23.98
2018-08-30T05:06:14.350Z,23.98
2018-08-30T05:07:17.732Z,23.99
2018-08-30T05:08:21.125Z,23.98
2018-08-30T05:09:24.510Z,24.00
2018-08-30T05:10:27.972Z,23.99
2018-08-30T05:11:31.398Z,24.02
2018-08-30T05:12:34.841Z,24.01
2018-08-30T05:13:38.318Z,24.03
2018-08-30T05:14:41.726Z,24.04
2018-08-30T05:15:45.160Z,24.03
2018-08-30T05:16:48.550Z,24.04
2018-08-30T05:17:51.932Z,24.04
2018-08-30T05:18:55.402Z,24.03
2018-08-30T05:19:58.817Z,24.03
2018-08-30T05:21:02.214Z,24.04
2018-08-30T05:22:05.636Z,24.05
2018-08-30T05:23:09.119Z,24.05
2018-08-30T05:24:12.443Z,24.05
2018-08-30T05:25:15.801Z,24.04
2018-08-30T05:26:19.168Z,24.03
2018-08-30T05:27:22.594Z,24.01
2018-08-30T05:28:26.150Z,24.00
2018-08-30T05:29:29.560Z,23.98
2018-08-30T05:30:32.960Z,23.97
2018-08-30T05:31:36.395Z,23.97
2018-08-30T05:32:39.782Z,23.96
2018-08-30T05:33:43.176Z,23.95
2018-08-30T05:34:46.554Z,23.95
2018-08-30T05:35:50.014Z,23.94
2018-08-30T05:36:53.389Z,23.94
2018-08-30T05:37:56.955Z,23.93
2018-08-30T05:39:00.411Z,23.95
2018-08-30T05:40:03.890Z,23.95
2018-08-30T05:41:07.527Z,23.96
2018-08-30T05:42:10.947Z,23.96
2018-08-30T05:43:14.341Z,23.97
2018-08-30T05:44:17.716Z,23.98
2018-08-30T05:45:21.243Z,24.01
2018-08-30T05:46:24.633Z,24.00
2018-08-30T05:47:28.068Z,24.02
2018-08-30T05:48:31.445Z,24.00
2018-08-30T05:49:34.830Z,24.02
2018-08-30T05:50:38.294Z,24.02
2018-08-30T05:51:41.684Z,24.02
2018-08-30T05:52:45.171Z,24.02
2018-08-30T05:53:48.557Z,24.02
2018-08-30T05:54:51.988Z,24.02
2018-08-30T05:55:56.197Z,24.02
2018-08-30T05:56:59.735Z,24.03
2018-08-30T05:58:03.089Z,24.03
2018-08-30T05:59:06.591Z,24.03
2018-08-30T06:00:10.061Z,24.02
2018-08-30T06:01:13.487Z,24.02
2018-08-30T06:02:17.039Z,24.01
2018-08-30T06:03:20.436Z,24.03
2018-08-30T06:04:23.897Z,24.01
2018-08-30T06:05:27.603Z,24.01
2018-08-30T06:06:31.044Z,24.01
2018-08-30T06:07:34.410Z,24.00
2018-08-30T06:08:37.817Z,24.01
2018-08-30T06:09:41.247Z,23.99
2018-08-30T06:10:44.677Z,23.98
2018-08-30T06:11:48.055Z,23.97
2018-08-30T06:12:51.508Z,23.96
2018-08-30T06:13:55.078Z,23.96
2018-08-30T06:14:58.486Z,23.95
2018-08-30T06:16:01.953Z,23.95
2018-08-30T06:17:05.616Z,23.97
2018-08-30T06:18:09.057Z,23.96
2018-08-30T06:19:12.503Z,23.94
2018-08-30T06:20:15.912Z,23.93
2018-08-30T06:21:19.337Z,23.92
2018-08-30T06:22:22.874Z,23.94
2018-08-30T06:23:26.339Z,23.91
2018-08-30T06:24:29.796Z,23.90
2018-08-30T06:25:33.183Z,23.86
2018-08-30T06:26:36.663Z,23.77
2018-08-30T06:27:40.073Z,23.71
2018-08-30T06:28:43.496Z,23.64
2018-08-30T06:29:46.917Z,23.56
2018-08-30T06:30:50.379Z,23.54
2018-08-30T06:31:53.784Z,23.49
2018-08-30T06:32:57.289Z,23.43
2018-08-30T06:34:00.712Z,23.38
2018-08-30T06:35:04.116Z,23.33
2018-08-30T06:36:07.571Z,23.30
2018-08-30T06:37:11.034Z,23.24
2018-08-30T06:38:14.483Z,23.23
2018-08-30T06:39:17.896Z,23.22
2018-08-30T06:40:21.326Z,23.20
2018-08-30T06:41:25.469Z,23.20
2018-08-30T06:42:28.958Z,23.17
2018-08-30T06:43:32.374Z,23.17
2018-08-30T06:44:35.721Z,23.15
2018-08-30T06:45:39.116Z,23.12
2018-08-30T06:46:42.474Z,23.12
2018-08-30T06:47:45.894Z,23.11
2018-08-30T06:48:49.315Z,23.11
2018-08-30T06:49:52.738Z,23.10
2018-08-30T06:50:56.227Z,23.07
2018-08-30T06:51:59.750Z,23.06
2018-08-30T06:53:03.742Z,23.05
2018-08-30T06:54:07.232Z,23.00
2018-08-30T06:55:11.041Z,22.99
2018-08-30T06:56:14.513Z,22.97
2018-08-30T06:57:18.120Z,22.94
2018-08-30T06:58:21.918Z,22.95
2018-08-30T06:59:25.318Z,22.89
2018-08-30T07:00:28.792Z,22.94
2018-08-30T07:01:32.185Z,22.93
2018-08-30T07:02:35.588Z,22.92
2018-08-30T07:03:39.223Z,22.91
2018-08-30T07:04:42.701Z,22.91
2018-08-30T07:05:46.124Z,22.90
2018-08-30T07:06:49.552Z,22.91
2018-08-30T07:07:53.195Z,22.89
2018-08-30T07:08:56.646Z,22.88
2018-08-30T07:10:01.072Z,22.89
2018-08-30T07:11:04.590Z,22.88
2018-08-30T07:12:08.083Z,22.89
2018-08-30T07:13:11.450Z,22.88
2018-08-30T07:14:14.846Z,22.89
2018-08-30T07:15:18.299Z,22.90
2018-08-30T07:16:21.869Z,22.91
2018-08-30T07:17:25.379Z,22.92
2018-08-30T07:18:28.871Z,22.94
2018-08-30T07:19:32.380Z,22.94
2018-08-30T07:20:35.901Z,22.96
2018-08-30T07:21:39.296Z,22.98
2018-08-30T07:22:42.720Z,22.99
2018-08-30T07:23:46.102Z,23.00
2018-08-30T07:24:49.474Z,23.02
2018-08-30T07:25:52.880Z,23.04
2018-08-30T07:26:56.322Z,23.04
2018-08-30T07:27:59.790Z,23.04
2018-08-30T07:29:03.232Z,23.06
2018-08-30T07:30:09.867Z,23.06
2018-08-30T07:31:13.262Z,23.07
2018-08-30T07:32:16.644Z,23.08
2018-08-30T07:33:20.013Z,23.08
2018-08-30T07:34:23.534Z,23.09
2018-08-30T07:35:26.925Z,23.09
2018-08-30T07:36:30.351Z,23.11
2018-08-30T07:37:33.776Z,23.10
2018-08-30T07:38:37.171Z,23.11
2018-08-30T07:39:40.574Z,23.11
2018-08-30T07:40:43.985Z,23.12
2018-08-30T07:41:47.391Z,23.12
2018-08-30T07:42:50.810Z,23.12
2018-08-30T07:43:54.333Z,23.12
2018-08-30T07:44:57.773Z,23.12
2018-08-30T07:46:01.309Z,23.13
2018-08-30T07:47:05.056Z,23.13
2018-08-30T07:48:08.480Z,23.13
2018-08-30T07:49:11.942Z,23.14
2018-08-30T07:50:15.414Z,23.12
2018-08-30T07:51:18.859Z,23.14
2018-08-30T07:52:22.268Z,23.12
2018-08-30T07:53:25.893Z,23.12
2018-08-30T07:54:29.378Z,23.13
2018-08-30T07:55:32.798Z,23.13
2018-08-30T07:56:36.216Z,23.12
2018-08-30T07:57:39.609Z,23.12
2018-08-30T07:58:43.029Z,23.15
2018-08-30T07:59:46.428Z,23.14
2018-08-30T08:00:49.951Z,23.14
2018-08-30T08:01:53.322Z,23.15
2018-08-30T08:02:56.729Z,23.14
2018-08-30T08:04:00.150Z,23.14
2018-08-30T08:05:03.774Z,23.15
2018-08-30T08:06:07.380Z,23.14
2018-08-30T08:07:11.057Z,23.17
2018-08-30T08:08:14.648Z,23.15
2018-08-30T08:09:18.034Z,23.16
2018-08-30T08:10:21.441Z,23.15
2018-08-30T08:11:24.850Z,23.16
2018-08-30T08:12:28.233Z,23.15
2018-08-30T08:13:31.700Z,23.15
2018-08-30T08:14:36.015Z,23.15
2018-08-30T08:15:40.122Z,23.11
2018-08-30T08:16:44.445Z,23.17
2018-08-30T08:17:49.788Z,23.15
2018-08-30T08:18:53.246Z,23.16
2018-08-30T08:19:57.092Z,23.17
2018-08-30T08:21:00.886Z,23.17
2018-08-30T08:22:05.987Z,23.17
2018-08-30T08:23:09.767Z,23.19
2018-08-30T08:24:13.399Z,23.20
2018-08-30T08:25:17.103Z,23.23
2018-08-30T08:26:20.829Z,23.24
2018-08-30T08:27:24.908Z,23.26
2018-08-30T08:28:28.744Z,23.27
2018-08-30T08:29:32.384Z,23.29
2018-08-30T08:30:36.039Z,23.30
2018-08-30T08:31:39.711Z,23.31
2018-08-30T08:32:43.247Z,23.32
2018-08-30T08:33:47.210Z,23.33
2018-08-30T08:34:50.970Z,23.34
2018-08-30T08:35:55.386Z,23.34
2018-08-30T08:36:59.159Z,23.34
2018-08-30T08:38:02.980Z,23.35
2018-08-30T08:39:07.674Z,23.36
2018-08-30T08:40:11.177Z,23.37
2018-08-30T08:41:15.098Z,23.38
2018-08-30T08:42:18.500Z,23.39
2018-08-30T08:43:21.912Z,23.39
2018-08-30T08:44:25.728Z,23.40
2018-08-30T08:45:29.207Z,23.40
2018-08-30T08:46:32.653Z,23.35
2018-08-30T08:47:36.333Z,23.39
2018-08-30T08:48:39.760Z,23.39
2018-08-30T08:49:43.187Z,23.39
2018-08-30T08:50:46.666Z,23.39
2018-08-30T08:51:50.099Z,23.37
2018-08-30T08:52:53.777Z,23.33
2018-08-30T08:53:57.246Z,23.38
2018-08-30T08:55:00.857Z,23.40
2018-08-30T08:56:04.780Z,23.40
2018-08-30T08:57:08.185Z,23.41
2018-08-30T08:58:11.594Z,23.41
2018-08-30T08:59:15.199Z,23.43
2018-08-30T09:00:18.896Z,23.43
2018-08-30T09:01:22.370Z,23.44
2018-08-30T09:02:26.264Z,23.44
2018-08-30T09:03:29.694Z,23.44
2018-08-30T09:04:33.169Z,23.45
2018-08-30T09:05:36.582Z,23.46
2018-08-30T09:06:39.958Z,23.45
2018-08-30T09:07:43.475Z,23.47
2018-08-30T09:08:46.830Z,23.47
2018-08-30T09:09:50.461Z,23.48
2018-08-30T09:10:53.981Z,23.48
2018-08-30T09:11:57.427Z,23.49
2018-08-30T09:13:00.860Z,23.49
2018-08-30T09:14:04.701Z,23.49
2018-08-30T09:15:08.216Z,23.50
2018-08-30T09:16:11.617Z,23.51
2018-08-30T09:17:15.083Z,23.50
2018-08-30T09:18:18.564Z,23.50
2018-08-30T09:19:21.984Z,23.52
2018-08-30T09:20:25.393Z,23.52
2018-08-30T09:21:28.801Z,23.52
2018-08-30T09:22:32.216Z,23.52
2018-08-30T09:23:35.632Z,23.52
2018-08-30T09:24:39.109Z,23.52
2018-08-30T09:25:42.506Z,23.51
2018-08-30T09:26:45.958Z,23.52
2018-08-30T09:27:49.364Z,23.52
2018-08-30T09:28:52.793Z,23.50
2018-08-30T09:29:56.906Z,23.51
2018-08-30T09:31:00.390Z,23.50
2018-08-30T09:32:03.868Z,23.50
2018-08-30T09:33:07.664Z,23.50
2018-08-30T09:34:11.242Z,23.49
2018-08-30T09:35:14.686Z,23.48
2018-08-30T09:36:18.082Z,23.51
2018-08-30T09:37:22.133Z,23.51
2018-08-30T09:38:25.722Z,23.49
2018-08-30T09:39:29.365Z,23.49
2018-08-30T09:40:32.819Z,23.49
2018-08-30T09:41:36.544Z,23.49
2018-08-30T09:42:39.962Z,23.48
2018-08-30T09:43:43.403Z,23.48
2018-08-30T09:44:46.869Z,23.47
2018-08-30T09:45:50.311Z,23.48
2018-08-30T09:46:53.754Z,23.47
2018-08-30T09:47:57.278Z,23.46
2018-08-30T09:49:00.766Z,23.47
2018-08-30T09:50:04.291Z,23.45
2018-08-30T09:51:07.722Z,23.45
2018-08-30T09:52:11.237Z,23.45
2018-08-30T09:53:14.641Z,23.44
2018-08-30T09:54:18.068Z,23.43
2018-08-30T09:55:21.525Z,23.43
2018-08-30T09:56:24.962Z,23.42
2018-08-30T09:57:28.451Z,23.41
2018-08-30T09:58:31.821Z,23.42
2018-08-30T09:59:35.266Z,23.42
2018-08-30T10:00:44.053Z,23.37
2018-08-30T10:01:49.822Z,23.45
2018-08-30T10:02:53.206Z,23.44
2018-08-30T10:03:56.798Z,23.43
2018-08-30T10:05:00.314Z,23.42
2018-08-30T10:06:03.732Z,23.42
2018-08-30T10:07:07.174Z,23.42
2018-08-30T10:08:10.600Z,23.42
2018-08-30T10:09:14.118Z,23.41
2018-08-30T10:10:17.538Z,23.43
2018-08-30T10:11:20.988Z,23.43
2018-08-30T10:12:24.475Z,23.43
2018-08-30T10:13:27.874Z,23.42
2018-08-30T10:14:31.374Z,23.42
2018-08-30T10:15:34.790Z,23.44
2018-08-30T10:16:38.192Z,23.43
2018-08-30T10:17:41.661Z,23.43
2018-08-30T10:18:45.074Z,23.43
2018-08-30T10:19:48.489Z,23.43
2018-08-30T10:20:51.854Z,23.43
2018-08-30T10:21:55.329Z,23.43
2018-08-30T10:22:58.825Z,23.42
2018-08-30T10:24:02.253Z,23.43
2018-08-30T10:25:05.977Z,23.43
2018-08-30T10:26:09.386Z,23.43
2018-08-30T10:27:12.789Z,23.43
2018-08-30T10:28:16.171Z,23.43
2018-08-30T10:29:19.600Z,23.44
2018-08-30T10:30:23.038Z,23.44
2018-08-30T10:31:26.550Z,23.45
2018-08-30T10:32:29.947Z,23.44
2018-08-30T10:33:33.332Z,23.45
2018-08-30T10:34:36.772Z,23.45
2018-08-30T10:35:40.158Z,23.45
2018-08-30T10:36:43.606Z,23.44
2018-08-30T10:37:46.995Z,23.44
2018-08-30T10:38:50.437Z,23.45
2018-08-30T10:39:53.826Z,23.44
2018-08-30T10:40:57.280Z,23.43
2018-08-30T10:42:00.746Z,23.43
2018-08-30T10:43:04.317Z,23.42
2018-08-30T10:44:07.705Z,23.42
2018-08-30T10:45:11.088Z,23.42
2018-08-30T10:46:14.505Z,23.42
2018-08-30T10:47:17.911Z,23.42
2018-08-30T10:48:21.467Z,23.41
2018-08-30T10:49:25.210Z,23.42
2018-08-30T10:50:28.617Z,23.42
2018-08-30T10:51:32.045Z,23.41
2018-08-30T10:52:35.431Z,23.41
2018-08-30T10:53:38.873Z,23.42
2018-08-30T10:54:42.262Z,23.41
2018-08-30T10:55:45.726Z,23.42
2018-08-30T10:56:49.195Z,23.42
2018-08-30T10:57:52.706Z,23.43
2018-08-30T10:58:56.159Z,23.43
2018-08-30T10:59:59.645Z,23.43
2018-08-30T11:01:03.068Z,23.44
2018-08-30T11:02:06.577Z,23.44
2018-08-30T11:03:10.036Z,23.44
2018-08-30T11:04:13.584Z,23.45
2018-08-30T11:05:16.986Z,23.44
2018-08-30T11:06:20.490Z,23.44
2018-08-30T11:07:23.984Z,23.42
2018-08-30T11:08:27.527Z,23.43
2018-08-30T11:09:30.951Z,23.42
2018-08-30T11:10:34.359Z,23.43
2018-08-30T11:11:37.819Z,23.42
2018-08-30T11:12:41.314Z,23.41
2018-08-30T11:13:44.743Z,23.40
2018-08-30T11:14:48.188Z,23.40
2018-08-30T11:15:51.586Z,23.42
2018-08-30T11:16:55.036Z,23.40
2018-08-30T11:17:58.525Z,23.41
2018-08-30T11:19:01.958Z,23.41
2018-08-30T11:20:05.655Z,23.41
2018-08-30T11:21:09.132Z,23.41
2018-08-30T11:22:12.533Z,23.41
2018-08-30T11:23:15.975Z,23.42
2018-08-30T11:24:19.359Z,23.42
2018-08-30T11:25:22.809Z,23.43
2018-08-30T11:26:26.233Z,23.43
2018-08-30T11:27:29.744Z,23.44
2018-08-30T11:28:33.199Z,23.43
2018-08-30T11:29:36.621Z,23.43
2018-08-30T11:30:40.217Z,23.45
2018-08-30T11:31:43.628Z,23.44
2018-08-30T11:32:47.032Z,23.44
2018-08-30T11:33:50.440Z,23.44
2018-08-30T11:34:53.839Z,23.45
2018-08-30T11:35:57.239Z,23.46
2018-08-30T11:37:00.696Z,23.46
2018-08-30T11:38:04.156Z,23.46
2018-08-30T11:39:08.072Z,23.46
2018-08-30T11:40:11.513Z,23.47
2018-08-30T11:41:14.994Z,23.46
2018-08-30T11:42:18.438Z,23.47
2018-08-30T11:43:21.907Z,23.48
2018-08-30T11:44:25.324Z,23.49
2018-08-30T11:45:28.778Z,23.48
2018-08-30T11:46:32.208Z,23.48
2018-08-30T11:47:35.664Z,23.48
2018-08-30T11:48:39.083Z,23.49
2018-08-30T11:49:42.498Z,23.49
2018-08-30T11:50:45.908Z,23.48
2018-08-30T11:51:49.382Z,23.48
2018-08-30T11:52:52.784Z,23.49
2018-08-30T11:53:56.359Z,23.50
2018-08-30T11:54:59.918Z,23.49
2018-08-30T11:56:03.363Z,23.49
2018-08-30T11:57:06.817Z,23.49
2018-08-30T11:58:10.253Z,23.50
2018-08-30T11:59:13.671Z,23.49
2018-08-30T12:00:17.070Z,23.49
2018-08-30T12:01:21.538Z,23.48
2018-08-30T12:02:25.227Z,23.49
2018-08-30T12:03:28.827Z,23.49
2018-08-30T12:04:32.461Z,23.49
2018-08-30T12:05:36.047Z,23.48
2018-08-30T12:06:39.848Z,23.49
2018-08-30T12:07:43.832Z,23.47
2018-08-30T12:08:47.250Z,23.48
2018-08-30T12:09:50.732Z,23.48
2018-08-30T12:10:54.301Z,23.48
2018-08-30T12:11:57.705Z,23.48
2018-08-30T12:13:01.129Z,23.48
2018-08-30T12:14:04.845Z,23.49
2018-08-30T12:15:08.303Z,23.48
2018-08-30T12:16:11.708Z,23.48
2018-08-30T12:17:15.111Z,23.49
2018-08-30T12:18:18.532Z,23.50
2018-08-30T12:19:21.950Z,23.50
2018-08-30T12:20:25.418Z,23.51
2018-08-30T12:21:28.964Z,23.50
2018-08-30T12:22:32.502Z,23.52
2018-08-30T12:23:35.913Z,23.55
2018-08-30T12:24:39.291Z,23.54
2018-08-30T12:25:42.716Z,23.52
2018-08-30T12:26:46.227Z,23.53
2018-08-30T12:27:49.660Z,23.52
2018-08-30T12:28:53.172Z,23.52
2018-08-30T12:29:56.586Z,23.51
2018-08-30T12:31:00.986Z,23.50
2018-08-30T12:32:04.460Z,23.50
2018-08-30T12:33:08.019Z,23.50
2018-08-30T12:34:11.587Z,23.50
2018-08-30T12:35:15.229Z,23.50
2018-08-30T12:36:19.044Z,23.49
2018-08-30T12:37:22.508Z,23.49
2018-08-30T12:38:26.119Z,23.50
2018-08-30T12:39:29.557Z,23.50
2018-08-30T12:40:33.146Z,23.50
2018-08-30T12:41:36.399Z,23.49
2018-08-30T12:42:39.878Z,23.49
2018-08-30T12:43:43.443Z,23.49
2018-08-30T12:44:46.753Z,23.49
2018-08-30T12:45:50.278Z,23.50
2018-08-30T12:46:53.894Z,23.49
2018-08-30T12:47:57.460Z,23.48
2018-08-30T12:49:00.977Z,23.48
2018-08-30T12:50:04.497Z,23.49
2018-08-30T12:51:08.005Z,23.49
2018-08-30T12:52:11.545Z,23.49
2018-08-30T12:53:15.124Z,23.49
2018-08-30T12:54:18.935Z,23.49
2018-08-30T12:55:22.698Z,23.49
2018-08-30T12:56:26.851Z,23.49
2018-08-30T12:57:30.774Z,23.48
2018-08-30T12:58:34.966Z,23.48
2018-08-30T12:59:39.641Z,23.48
2018-08-30T13:00:43.040Z,23.48
2018-08-30T13:01:47.555Z,23.48
2018-08-30T13:02:51.260Z,23.48
2018-08-30T13:03:54.836Z,23.48
2018-08-30T13:04:58.376Z,23.48
2018-08-30T13:06:02.066Z,23.48
2018-08-30T13:07:05.741Z,23.48
2018-08-30T13:08:09.509Z,23.48
2018-08-30T13:09:14.926Z,23.48
2018-08-30T13:10:18.641Z,23.48
2018-08-30T13:11:22.404Z,23.48
2018-08-30T13:12:25.617Z,23.47
2018-08-30T13:13:29.148Z,23.47
2018-08-30T13:14:32.631Z,23.47
2018-08-30T13:15:36.011Z,23.48
2018-08-30T13:16:39.675Z,23.48
2018-08-30T13:17:43.066Z,23.48
2018-08-30T13:18:46.618Z,23.50
2018-08-30T13:19:50.272Z,23.49
2018-08-30T13:20:53.508Z,23.49
2018-08-30T13:21:57.037Z,23.49
2018-08-30T13:23:00.495Z,23.49
2018-08-30T13:24:03.930Z,23.50
2018-08-30T13:25:07.510Z,23.49
2018-08-30T13:26:10.880Z,23.50
2018-08-30T13:27:14.459Z,23.50
2018-08-30T13:28:18.038Z,23.49
2018-08-30T13:29:22.110Z,23.48
2018-08-30T13:30:25.653Z,23.49
2018-08-30T13:31:29.206Z,23.49
2018-08-30T13:32:33.525Z,23.48
2018-08-30T13:33:36.913Z,23.49
2018-08-30T13:34:40.466Z,23.48
2018-08-30T13:35:43.982Z,23.48
2018-08-30T13:36:47.571Z,23.49
2018-08-30T13:37:51.187Z,23.48